Elburz, Nevada
Current Conditions -  °F | °C
As of 1:56 AM on Friday 24 Oct 2014 (Local Time) from KEKO Reporting Station
Clear Clear  
Wind Chill: 34°   Ceiling: Unl
Heat Index: 40°   Visibility: 10mi
Dew Point: 20°   Wind: 8mph
Humidity: 45%   Direction: 80°E
Pressure: 30.12"   Gusts: NA
Location:  40.9295°N, 115.504°W
Report Text: KEKO 240856Z AUTO 08007KT 10SM CLR 04/M07 A3012 RMK AO2 SLP173 T00441067 53008
Loading
Personal Weather Stations






























Interactive Weather Map
Tropical Storm Tracking
New forecast layout! Learn more

10-Day Weather Forecast

Advertisements
Track Severe Weather on mobile